sensor_id;sensor_type;location;lat;lon;timestamp;P1;durP1;ratioP1;P2;durP2;ratioP2
60979;SDS011;46851;49.160;8.980;2023-08-06T00:00:09;5.28;;;3.90;;
60979;SDS011;46851;49.160;8.980;2023-08-06T00:02:35;9.43;;;4.15;;
60979;SDS011;46851;49.160;8.980;2023-08-06T00:05:01;6.18;;;4.38;;
60979;SDS011;46851;49.160;8.980;2023-08-06T00:07:28;5.45;;;4.80;;
60979;SDS011;46851;49.160;8.980;2023-08-06T00:09:53;7.63;;;4.47;;
60979;SDS011;46851;49.160;8.980;2023-08-06T00:12:19;7.97;;;5.05;;
60979;SDS011;46851;49.160;8.980;2023-08-06T00:14:49;7.40;;;4.80;;
60979;SDS011;46851;49.160;8.980;2023-08-06T00:19:41;7.18;;;4.88;;
60979;SDS011;46851;49.160;8.980;2023-08-06T00:22:07;8.13;;;4.75;;
60979;SDS011;46851;49.160;8.980;2023-08-06T00:24:34;6.35;;;4.60;;
60979;SDS011;46851;49.160;8.980;2023-08-06T00:27:00;5.97;;;4.72;;
60979;SDS011;46851;49.160;8.980;2023-08-06T00:29:26;6.75;;;4.53;;
60979;SDS011;46851;49.160;8.980;2023-08-06T00:31:52;6.93;;;5.13;;
60979;SDS011;46851;49.160;8.980;2023-08-06T00:34:18;5.82;;;4.97;;
60979;SDS011;46851;49.160;8.980;2023-08-06T00:36:44;4.88;;;4.38;;
60979;SDS011;46851;49.160;8.980;2023-08-06T00:39:10;9.40;;;5.78;;
60979;SDS011;46851;49.160;8.980;2023-08-06T00:41:36;8.30;;;5.20;;
60979;SDS011;46851;49.160;8.980;2023-08-06T00:44:02;7.75;;;5.35;;
60979;SDS011;46851;49.160;8.980;2023-08-06T00:46:28;7.30;;;5.03;;
60979;SDS011;46851;49.160;8.980;2023-08-06T00:48:54;9.27;;;4.72;;
60979;SDS011;46851;49.160;8.980;2023-08-06T00:51:20;7.07;;;5.15;;
60979;SDS011;46851;49.160;8.980;2023-08-06T00:53:46;6.13;;;4.40;;
60979;SDS011;46851;49.160;8.980;2023-08-06T00:56:13;7.30;;;5.00;;
60979;SDS011;46851;49.160;8.980;2023-08-06T00:58:39;8.40;;;5.95;;
60979;SDS011;46851;49.160;8.980;2023-08-06T01:01:05;6.68;;;4.75;;
60979;SDS011;46851;49.160;8.980;2023-08-06T01:03:31;6.13;;;4.57;;
60979;SDS011;46851;49.160;8.980;2023-08-06T01:05:57;5.30;;;4.28;;
60979;SDS011;46851;49.160;8.980;2023-08-06T01:08:28;5.18;;;4.40;;
60979;SDS011;46851;49.160;8.980;2023-08-06T01:11:14;7.72;;;3.92;;
60979;SDS011;46851;49.160;8.980;2023-08-06T01:13:42;7.35;;;4.40;;
60979;SDS011;46851;49.160;8.980;2023-08-06T01:16:11;8.52;;;4.65;;
60979;SDS011;46851;49.160;8.980;2023-08-06T01:18:37;6.93;;;4.53;;
60979;SDS011;46851;49.160;8.980;2023-08-06T01:21:04;7.03;;;4.20;;
60979;SDS011;46851;49.160;8.980;2023-08-06T01:23:30;8.52;;;4.38;;
60979;SDS011;46851;49.160;8.980;2023-08-06T01:26:07;6.30;;;4.03;;
60979;SDS011;46851;49.160;8.980;2023-08-06T01:28:54;6.85;;;3.75;;
60979;SDS011;46851;49.160;8.980;2023-08-06T01:31:22;5.47;;;3.72;;
60979;SDS011;46851;49.160;8.980;2023-08-06T01:33:50;9.52;;;4.38;;
60979;SDS011;46851;49.160;8.980;2023-08-06T01:36:16;4.50;;;3.83;;
60979;SDS011;46851;49.160;8.980;2023-08-06T01:38:43;8.15;;;3.60;;
60979;SDS011;46851;49.160;8.980;2023-08-06T01:41:09;11.80;;;4.47;;
60979;SDS011;46851;49.160;8.980;2023-08-06T01:43:35;5.70;;;4.25;;
60979;SDS011;46851;49.160;8.980;2023-08-06T01:46:01;6.35;;;3.95;;
60979;SDS011;46851;49.160;8.980;2023-08-06T01:48:28;4.93;;;3.80;;
60979;SDS011;46851;49.160;8.980;2023-08-06T01:50:54;8.00;;;4.75;;
60979;SDS011;46851;49.160;8.980;2023-08-06T01:53:20;8.80;;;4.30;;
60979;SDS011;46851;49.160;8.980;2023-08-06T01:55:49;7.82;;;4.63;;
60979;SDS011;46851;49.160;8.980;2023-08-06T01:58:15;7.57;;;3.87;;
60979;SDS011;46851;49.160;8.980;2023-08-06T02:00:41;6.97;;;3.85;;
60979;SDS011;46851;49.160;8.980;2023-08-06T02:03:07;8.48;;;4.40;;
60979;SDS011;46851;49.160;8.980;2023-08-06T02:05:33;5.80;;;3.88;;
60979;SDS011;46851;49.160;8.980;2023-08-06T02:07:59;5.30;;;3.90;;
60979;SDS011;46851;49.160;8.980;2023-08-06T02:10:25;4.97;;;3.88;;
60979;SDS011;46851;49.160;8.980;2023-08-06T02:12:51;5.70;;;3.88;;
60979;SDS011;46851;49.160;8.980;2023-08-06T02:15:17;6.00;;;4.18;;
60979;SDS011;46851;49.160;8.980;2023-08-06T02:17:43;5.93;;;3.03;;
60979;SDS011;46851;49.160;8.980;2023-08-06T02:20:09;4.75;;;3.08;;
60979;SDS011;46851;49.160;8.980;2023-08-06T02:22:35;10.05;;;4.05;;
60979;SDS011;46851;49.160;8.980;2023-08-06T02:25:01;4.38;;;3.42;;
60979;SDS011;46851;49.160;8.980;2023-08-06T02:27:27;5.28;;;3.65;;
60979;SDS011;46851;49.160;8.980;2023-08-06T02:29:53;5.90;;;3.60;;
60979;SDS011;46851;49.160;8.980;2023-08-06T02:32:19;6.13;;;3.78;;
60979;SDS011;46851;49.160;8.980;2023-08-06T02:34:45;6.22;;;4.15;;
60979;SDS011;46851;49.160;8.980;2023-08-06T02:37:11;5.95;;;3.70;;
60979;SDS011;46851;49.160;8.980;2023-08-06T02:39:37;5.25;;;3.95;;
60979;SDS011;46851;49.160;8.980;2023-08-06T02:42:05;5.97;;;3.65;;
60979;SDS011;46851;49.160;8.980;2023-08-06T02:44:31;6.65;;;4.20;;
60979;SDS011;46851;49.160;8.980;2023-08-06T02:46:58;6.97;;;4.20;;
60979;SDS011;46851;49.160;8.980;2023-08-06T02:49:24;5.60;;;3.40;;
60979;SDS011;46851;49.160;8.980;2023-08-06T02:51:50;4.43;;;3.20;;
60979;SDS011;46851;49.160;8.980;2023-08-06T02:54:17;5.47;;;2.83;;
60979;SDS011;46851;49.160;8.980;2023-08-06T02:56:43;2.92;;;2.63;;
60979;SDS011;46851;49.160;8.980;2023-08-06T02:59:12;3.45;;;2.80;;
60979;SDS011;46851;49.160;8.980;2023-08-06T03:01:38;3.63;;;2.67;;
60979;SDS011;46851;49.160;8.980;2023-08-06T03:04:05;5.65;;;3.13;;
60979;SDS011;46851;49.160;8.980;2023-08-06T03:06:31;5.50;;;2.90;;
60979;SDS011;46851;49.160;8.980;2023-08-06T03:08:57;5.63;;;2.65;;
60979;SDS011;46851;49.160;8.980;2023-08-06T03:11:23;3.85;;;2.80;;
60979;SDS011;46851;49.160;8.980;2023-08-06T03:13:49;5.25;;;3.20;;
60979;SDS011;46851;49.160;8.980;2023-08-06T03:16:15;5.20;;;2.75;;
60979;SDS011;46851;49.160;8.980;2023-08-06T03:18:41;6.85;;;3.55;;
60979;SDS011;46851;49.160;8.980;2023-08-06T03:21:07;3.47;;;2.80;;
60979;SDS011;46851;49.160;8.980;2023-08-06T03:23:33;4.13;;;2.85;;
60979;SDS011;46851;49.160;8.980;2023-08-06T03:26:03;5.35;;;3.90;;
60979;SDS011;46851;49.160;8.980;2023-08-06T03:31:00;4.95;;;2.67;;
60979;SDS011;46851;49.160;8.980;2023-08-06T03:33:27;7.70;;;4.93;;
60979;SDS011;46851;49.160;8.980;2023-08-06T03:35:53;3.70;;;2.00;;
60979;SDS011;46851;49.160;8.980;2023-08-06T03:38:19;4.07;;;2.05;;
60979;SDS011;46851;49.160;8.980;2023-08-06T03:40:45;4.35;;;1.85;;
60979;SDS011;46851;49.160;8.980;2023-08-06T03:43:11;4.90;;;1.98;;
60979;SDS011;46851;49.160;8.980;2023-08-06T03:45:37;3.65;;;1.90;;
60979;SDS011;46851;49.160;8.980;2023-08-06T03:48:04;5.00;;;1.83;;
60979;SDS011;46851;49.160;8.980;2023-08-06T03:50:30;3.55;;;1.75;;
60979;SDS011;46851;49.160;8.980;2023-08-06T03:52:56;4.13;;;2.00;;
60979;SDS011;46851;49.160;8.980;2023-08-06T03:55:22;4.53;;;2.30;;
60979;SDS011;46851;49.160;8.980;2023-08-06T03:57:48;5.93;;;2.47;;
60979;SDS011;46851;49.160;8.980;2023-08-06T04:00:14;6.57;;;2.58;;
60979;SDS011;46851;49.160;8.980;2023-08-06T04:02:40;6.80;;;2.20;;
60979;SDS011;46851;49.160;8.980;2023-08-06T04:05:06;3.60;;;1.70;;
60979;SDS011;46851;49.160;8.980;2023-08-06T04:07:32;4.35;;;2.00;;
60979;SDS011;46851;49.160;8.980;2023-08-06T04:09:58;3.72;;;1.92;;
60979;SDS011;46851;49.160;8.980;2023-08-06T04:12:24;4.40;;;1.92;;
60979;SDS011;46851;49.160;8.980;2023-08-06T04:14:51;3.88;;;1.42;;
60979;SDS011;46851;49.160;8.980;2023-08-06T04:17:17;7.25;;;1.80;;
60979;SDS011;46851;49.160;8.980;2023-08-06T04:19:53;3.50;;;1.57;;
60979;SDS011;46851;49.160;8.980;2023-08-06T04:22:19;4.57;;;1.88;;
60979;SDS011;46851;49.160;8.980;2023-08-06T04:24:45;3.88;;;1.38;;
60979;SDS011;46851;49.160;8.980;2023-08-06T04:27:12;4.50;;;1.58;;
60979;SDS011;46851;49.160;8.980;2023-08-06T04:29:38;6.30;;;1.75;;
60979;SDS011;46851;49.160;8.980;2023-08-06T04:32:08;5.05;;;1.48;;
60979;SDS011;46851;49.160;8.980;2023-08-06T04:34:34;3.03;;;1.52;;
60979;SDS011;46851;49.160;8.980;2023-08-06T04:37:00;3.30;;;1.58;;
60979;SDS011;46851;49.160;8.980;2023-08-06T04:39:27;3.90;;;1.80;;
60979;SDS011;46851;49.160;8.980;2023-08-06T04:41:53;2.92;;;1.50;;
60979;SDS011;46851;49.160;8.980;2023-08-06T04:44:19;4.20;;;1.40;;
60979;SDS011;46851;49.160;8.980;2023-08-06T04:46:46;4.30;;;1.52;;
60979;SDS011;46851;49.160;8.980;2023-08-06T04:49:12;3.13;;;1.30;;
60979;SDS011;46851;49.160;8.980;2023-08-06T04:51:38;5.13;;;1.42;;
60979;SDS011;46851;49.160;8.980;2023-08-06T04:54:04;4.32;;;1.73;;
60979;SDS011;46851;49.160;8.980;2023-08-06T04:56:30;2.97;;;1.38;;
60979;SDS011;46851;49.160;8.980;2023-08-06T04:58:57;3.90;;;1.40;;
60979;SDS011;46851;49.160;8.980;2023-08-06T05:01:23;2.30;;;1.30;;
60979;SDS011;46851;49.160;8.980;2023-08-06T05:03:49;4.95;;;1.55;;
60979;SDS011;46851;49.160;8.980;2023-08-06T05:06:15;7.20;;;1.80;;
60979;SDS011;46851;49.160;8.980;2023-08-06T05:08:41;4.20;;;1.23;;
60979;SDS011;46851;49.160;8.980;2023-08-06T05:11:07;3.40;;;1.27;;
60979;SDS011;46851;49.160;8.980;2023-08-06T05:13:33;5.47;;;1.70;;
60979;SDS011;46851;49.160;8.980;2023-08-06T05:15:59;5.40;;;1.40;;
60979;SDS011;46851;49.160;8.980;2023-08-06T05:18:25;4.03;;;2.15;;
60979;SDS011;46851;49.160;8.980;2023-08-06T05:20:51;3.40;;;1.50;;
60979;SDS011;46851;49.160;8.980;2023-08-06T05:23:17;5.97;;;1.60;;
60979;SDS011;46851;49.160;8.980;2023-08-06T05:25:43;4.82;;;1.40;;
60979;SDS011;46851;49.160;8.980;2023-08-06T05:28:09;3.63;;;1.20;;
60979;SDS011;46851;49.160;8.980;2023-08-06T05:30:38;4.88;;;1.38;;
60979;SDS011;46851;49.160;8.980;2023-08-06T05:33:04;6.65;;;1.65;;
60979;SDS011;46851;49.160;8.980;2023-08-06T05:35:30;7.72;;;1.30;;
60979;SDS011;46851;49.160;8.980;2023-08-06T05:37:56;5.38;;;1.30;;
60979;SDS011;46851;49.160;8.980;2023-08-06T05:40:22;3.40;;;1.20;;
60979;SDS011;46851;49.160;8.980;2023-08-06T05:42:50;4.25;;;1.20;;
60979;SDS011;46851;49.160;8.980;2023-08-06T05:45:16;3.17;;;1.08;;
60979;SDS011;46851;49.160;8.980;2023-08-06T05:47:42;3.22;;;0.93;;
60979;SDS011;46851;49.160;8.980;2023-08-06T05:50:08;2.85;;;0.88;;
60979;SDS011;46851;49.160;8.980;2023-08-06T05:52:34;4.95;;;0.98;;
60979;SDS011;46851;49.160;8.980;2023-08-06T05:55:00;7.72;;;1.27;;
60979;SDS011;46851;49.160;8.980;2023-08-06T05:57:26;2.67;;;1.00;;
60979;SDS011;46851;49.160;8.980;2023-08-06T05:59:52;3.22;;;0.98;;
60979;SDS011;46851;49.160;8.980;2023-08-06T06:02:18;2.90;;;0.85;;
60979;SDS011;46851;49.160;8.980;2023-08-06T06:04:44;2.28;;;0.93;;
60979;SDS011;46851;49.160;8.980;2023-08-06T06:07:10;2.42;;;0.77;;
60979;SDS011;46851;49.160;8.980;2023-08-06T06:09:36;1.70;;;0.95;;
60979;SDS011;46851;49.160;8.980;2023-08-06T06:12:02;2.63;;;1.27;;
60979;SDS011;46851;49.160;8.980;2023-08-06T06:14:28;3.20;;;1.00;;
60979;SDS011;46851;49.160;8.980;2023-08-06T06:16:54;1.88;;;0.85;;
60979;SDS011;46851;49.160;8.980;2023-08-06T06:19:20;3.60;;;0.88;;
60979;SDS011;46851;49.160;8.980;2023-08-06T06:21:46;2.00;;;0.95;;
60979;SDS011;46851;49.160;8.980;2023-08-06T06:24:12;1.98;;;0.80;;
60979;SDS011;46851;49.160;8.980;2023-08-06T06:26:38;2.65;;;0.80;;
60979;SDS011;46851;49.160;8.980;2023-08-06T06:29:04;2.40;;;0.90;;
60979;SDS011;46851;49.160;8.980;2023-08-06T06:31:30;1.58;;;0.47;;
60979;SDS011;46851;49.160;8.980;2023-08-06T06:33:56;4.60;;;0.70;;
60979;SDS011;46851;49.160;8.980;2023-08-06T06:36:22;2.47;;;0.68;;
60979;SDS011;46851;49.160;8.980;2023-08-06T06:38:48;2.15;;;0.75;;
60979;SDS011;46851;49.160;8.980;2023-08-06T06:41:14;1.00;;;0.70;;
60979;SDS011;46851;49.160;8.980;2023-08-06T06:43:40;3.15;;;0.73;;
60979;SDS011;46851;49.160;8.980;2023-08-06T06:46:07;1.17;;;0.60;;
60979;SDS011;46851;49.160;8.980;2023-08-06T06:48:33;2.58;;;0.60;;
60979;SDS011;46851;49.160;8.980;2023-08-06T06:50:59;0.93;;;0.60;;
60979;SDS011;46851;49.160;8.980;2023-08-06T06:53:25;2.47;;;0.60;;
60979;SDS011;46851;49.160;8.980;2023-08-06T06:55:54;2.08;;;0.60;;
60979;SDS011;46851;49.160;8.980;2023-08-06T06:58:20;2.53;;;0.60;;
60979;SDS011;46851;49.160;8.980;2023-08-06T07:00:47;1.35;;;0.55;;
60979;SDS011;46851;49.160;8.980;2023-08-06T07:03:13;1.45;;;0.40;;
60979;SDS011;46851;49.160;8.980;2023-08-06T07:05:39;2.15;;;1.02;;
60979;SDS011;46851;49.160;8.980;2023-08-06T07:08:05;2.35;;;0.80;;
60979;SDS011;46851;49.160;8.980;2023-08-06T07:10:31;2.83;;;0.40;;
60979;SDS011;46851;49.160;8.980;2023-08-06T07:12:57;1.05;;;0.52;;
60979;SDS011;46851;49.160;8.980;2023-08-06T07:15:23;1.17;;;0.45;;
60979;SDS011;46851;49.160;8.980;2023-08-06T07:17:49;5.47;;;2.22;;
60979;SDS011;46851;49.160;8.980;2023-08-06T07:20:15;0.98;;;0.40;;
60979;SDS011;46851;49.160;8.980;2023-08-06T07:22:41;2.00;;;0.50;;
60979;SDS011;46851;49.160;8.980;2023-08-06T07:25:07;2.85;;;0.47;;
60979;SDS011;46851;49.160;8.980;2023-08-06T07:27:34;1.45;;;0.38;;
60979;SDS011;46851;49.160;8.980;2023-08-06T07:30:00;1.20;;;0.40;;
60979;SDS011;46851;49.160;8.980;2023-08-06T07:32:26;0.88;;;0.35;;
60979;SDS011;46851;49.160;8.980;2023-08-06T07:34:53;0.90;;;0.30;;
60979;SDS011;46851;49.160;8.980;2023-08-06T07:37:24;0.93;;;0.30;;
60979;SDS011;46851;49.160;8.980;2023-08-06T07:39:50;1.13;;;0.68;;
60979;SDS011;46851;49.160;8.980;2023-08-06T07:42:16;2.80;;;0.40;;
60979;SDS011;46851;49.160;8.980;2023-08-06T07:44:46;1.45;;;0.50;;
60979;SDS011;46851;49.160;8.980;2023-08-06T07:47:15;1.88;;;0.30;;
60979;SDS011;46851;49.160;8.980;2023-08-06T07:49:41;0.90;;;0.40;;
60979;SDS011;46851;49.160;8.980;2023-08-06T07:52:07;0.68;;;0.50;;
60979;SDS011;46851;49.160;8.980;2023-08-06T07:54:33;0.40;;;0.28;;
60979;SDS011;46851;49.160;8.980;2023-08-06T07:56:59;2.63;;;0.38;;
60979;SDS011;46851;49.160;8.980;2023-08-06T07:59:25;1.85;;;0.47;;
60979;SDS011;46851;49.160;8.980;2023-08-06T08:01:51;0.38;;;0.32;;
60979;SDS011;46851;49.160;8.980;2023-08-06T08:04:17;0.40;;;0.40;;
60979;SDS011;46851;49.160;8.980;2023-08-06T08:06:43;0.57;;;0.47;;
60979;SDS011;46851;49.160;8.980;2023-08-06T08:09:09;3.50;;;0.40;;
60979;SDS011;46851;49.160;8.980;2023-08-06T08:11:35;2.45;;;0.38;;
60979;SDS011;46851;49.160;8.980;2023-08-06T08:14:01;1.08;;;0.30;;
60979;SDS011;46851;49.160;8.980;2023-08-06T08:16:27;3.28;;;0.35;;
60979;SDS011;46851;49.160;8.980;2023-08-06T08:18:53;3.25;;;0.50;;
60979;SDS011;46851;49.160;8.980;2023-08-06T08:21:19;1.45;;;0.50;;
60979;SDS011;46851;49.160;8.980;2023-08-06T08:23:45;0.50;;;0.30;;
60979;SDS011;46851;49.160;8.980;2023-08-06T08:26:11;0.20;;;0.20;;
60979;SDS011;46851;49.160;8.980;2023-08-06T08:28:37;0.75;;;0.30;;
60979;SDS011;46851;49.160;8.980;2023-08-06T08:31:03;0.40;;;0.40;;
60979;SDS011;46851;49.160;8.980;2023-08-06T08:33:34;0.38;;;0.30;;
60979;SDS011;46851;49.160;8.980;2023-08-06T08:35:59;0.50;;;0.20;;
60979;SDS011;46851;49.160;8.980;2023-08-06T08:38:25;0.85;;;0.30;;
60979;SDS011;46851;49.160;8.980;2023-08-06T08:40:52;0.60;;;0.38;;
60979;SDS011;46851;49.160;8.980;2023-08-06T08:43:22;0.57;;;0.20;;
60979;SDS011;46851;49.160;8.980;2023-08-06T08:45:52;0.85;;;0.30;;
60979;SDS011;46851;49.160;8.980;2023-08-06T08:48:20;0.85;;;0.30;;
60979;SDS011;46851;49.160;8.980;2023-08-06T08:50:47;2.10;;;0.28;;
60979;SDS011;46851;49.160;8.980;2023-08-06T08:53:14;0.38;;;0.17;;
60979;SDS011;46851;49.160;8.980;2023-08-06T08:55:41;0.20;;;0.20;;
60979;SDS011;46851;49.160;8.980;2023-08-06T08:58:08;0.20;;;0.10;;
60979;SDS011;46851;49.160;8.980;2023-08-06T09:00:34;0.30;;;0.10;;
60979;SDS011;46851;49.160;8.980;2023-08-06T09:03:00;0.20;;;0.13;;
60979;SDS011;46851;49.160;8.980;2023-08-06T09:05:28;0.10;;;0.10;;
60979;SDS011;46851;49.160;8.980;2023-08-06T09:07:56;0.57;;;0.17;;
60979;SDS011;46851;49.160;8.980;2023-08-06T09:10:23;0.10;;;0.10;;
60979;SDS011;46851;49.160;8.980;2023-08-06T09:12:50;0.20;;;0.20;;
60979;SDS011;46851;49.160;8.980;2023-08-06T09:15:17;1.38;;;0.30;;
60979;SDS011;46851;49.160;8.980;2023-08-06T09:17:43;0.28;;;0.20;;
60979;SDS011;46851;49.160;8.980;2023-08-06T09:20:13;1.80;;;0.40;;
60979;SDS011;46851;49.160;8.980;2023-08-06T09:22:39;0.30;;;0.30;;
60979;SDS011;46851;49.160;8.980;2023-08-06T09:25:06;2.88;;;1.23;;
60979;SDS011;46851;49.160;8.980;2023-08-06T09:27:38;0.65;;;0.40;;
60979;SDS011;46851;49.160;8.980;2023-08-06T09:30:04;0.87;;;0.40;;
60979;SDS011;46851;49.160;8.980;2023-08-06T09:32:47;0.40;;;0.30;;
60979;SDS011;46851;49.160;8.980;2023-08-06T09:35:15;3.13;;;0.50;;
60979;SDS011;46851;49.160;8.980;2023-08-06T09:37:41;1.23;;;0.40;;
60979;SDS011;46851;49.160;8.980;2023-08-06T09:42:52;1.35;;;0.32;;
60979;SDS011;46851;49.160;8.980;2023-08-06T09:45:18;0.52;;;0.40;;
60979;SDS011;46851;49.160;8.980;2023-08-06T09:47:46;0.30;;;0.30;;
60979;SDS011;46851;49.160;8.980;2023-08-06T09:50:19;0.70;;;0.20;;
60979;SDS011;46851;49.160;8.980;2023-08-06T09:52:48;0.40;;;0.40;;
60979;SDS011;46851;49.160;8.980;2023-08-06T09:55:16;0.25;;;0.25;;
60979;SDS011;46851;49.160;8.980;2023-08-06T09:57:43;2.47;;;0.25;;
60979;SDS011;46851;49.160;8.980;2023-08-06T10:00:10;0.85;;;0.20;;
60979;SDS011;46851;49.160;8.980;2023-08-06T10:02:40;0.22;;;0.22;;
60979;SDS011;46851;49.160;8.980;2023-08-06T10:05:06;0.50;;;0.50;;
60979;SDS011;46851;49.160;8.980;2023-08-06T10:07:33;0.40;;;0.40;;
60979;SDS011;46851;49.160;8.980;2023-08-06T10:09:59;1.88;;;0.55;;
60979;SDS011;46851;49.160;8.980;2023-08-06T10:12:25;2.30;;;0.43;;
60979;SDS011;46851;49.160;8.980;2023-08-06T10:14:55;1.10;;;0.88;;
60979;SDS011;46851;49.160;8.980;2023-08-06T10:17:21;0.55;;;0.32;;
60979;SDS011;46851;49.160;8.980;2023-08-06T10:19:48;1.02;;;0.50;;
60979;SDS011;46851;49.160;8.980;2023-08-06T10:22:16;1.85;;;0.40;;
60979;SDS011;46851;49.160;8.980;2023-08-06T10:24:49;0.60;;;0.40;;
60979;SDS011;46851;49.160;8.980;2023-08-06T10:32:47;1.50;;;0.50;;
60979;SDS011;46851;49.160;8.980;2023-08-06T10:37:58;0.52;;;0.50;;
60979;SDS011;46851;49.160;8.980;2023-08-06T10:40:25;1.50;;;0.88;;
60979;SDS011;46851;49.160;8.980;2023-08-06T10:42:51;2.40;;;1.98;;
60979;SDS011;46851;49.160;8.980;2023-08-06T10:45:20;2.13;;;0.50;;
60979;SDS011;46851;49.160;8.980;2023-08-06T10:47:49;0.55;;;0.50;;
60979;SDS011;46851;49.160;8.980;2023-08-06T10:50:15;0.73;;;0.73;;
60979;SDS011;46851;49.160;8.980;2023-08-06T10:52:43;1.25;;;0.50;;
60979;SDS011;46851;49.160;8.980;2023-08-06T10:55:09;3.05;;;0.80;;
60979;SDS011;46851;49.160;8.980;2023-08-06T10:57:35;1.00;;;0.77;;
60979;SDS011;46851;49.160;8.980;2023-08-06T11:00:04;1.73;;;0.40;;
60979;SDS011;46851;49.160;8.980;2023-08-06T11:02:33;0.40;;;0.40;;
60979;SDS011;46851;49.160;8.980;2023-08-06T11:05:04;2.80;;;0.80;;
60979;SDS011;46851;49.160;8.980;2023-08-06T11:07:30;1.48;;;0.98;;
60979;SDS011;46851;49.160;8.980;2023-08-06T11:10:29;1.30;;;0.85;;
60979;SDS011;46851;49.160;8.980;2023-08-06T11:12:48;0.88;;;0.65;;
60979;SDS011;46851;49.160;8.980;2023-08-06T11:15:14;1.75;;;0.88;;
60979;SDS011;46851;49.160;8.980;2023-08-06T11:17:40;1.25;;;0.90;;
60979;SDS011;46851;49.160;8.980;2023-08-06T11:20:07;1.83;;;0.90;;
60979;SDS011;46851;49.160;8.980;2023-08-06T11:22:33;1.90;;;1.10;;
60979;SDS011;46851;49.160;8.980;2023-08-06T11:25:01;2.10;;;1.50;;
60979;SDS011;46851;49.160;8.980;2023-08-06T11:27:27;2.17;;;1.17;;
60979;SDS011;46851;49.160;8.980;2023-08-06T11:29:54;4.38;;;1.40;;
60979;SDS011;46851;49.160;8.980;2023-08-06T11:32:20;2.50;;;1.80;;
60979;SDS011;46851;49.160;8.980;2023-08-06T11:34:46;2.25;;;1.60;;
60979;SDS011;46851;49.160;8.980;2023-08-06T11:37:12;4.85;;;1.55;;
60979;SDS011;46851;49.160;8.980;2023-08-06T11:39:38;2.58;;;1.58;;
60979;SDS011;46851;49.160;8.980;2023-08-06T11:42:04;5.07;;;1.42;;
60979;SDS011;46851;49.160;8.980;2023-08-06T11:44:31;1.60;;;1.20;;
60979;SDS011;46851;49.160;8.980;2023-08-06T11:46:58;3.22;;;1.40;;
60979;SDS011;46851;49.160;8.980;2023-08-06T11:49:48;2.42;;;1.45;;
60979;SDS011;46851;49.160;8.980;2023-08-06T11:52:21;5.47;;;2.08;;
60979;SDS011;46851;49.160;8.980;2023-08-06T11:55:09;2.47;;;2.05;;
60979;SDS011;46851;49.160;8.980;2023-08-06T11:57:39;7.95;;;2.10;;
60979;SDS011;46851;49.160;8.980;2023-08-06T12:00:09;4.45;;;2.08;;
60979;SDS011;46851;49.160;8.980;2023-08-06T12:02:35;6.15;;;2.70;;
60979;SDS011;46851;49.160;8.980;2023-08-06T12:07:29;4.75;;;2.15;;
60979;SDS011;46851;49.160;8.980;2023-08-06T12:09:56;5.65;;;2.10;;
60979;SDS011;46851;49.160;8.980;2023-08-06T12:12:22;5.22;;;2.83;;
60979;SDS011;46851;49.160;8.980;2023-08-06T12:14:48;7.80;;;2.78;;
60979;SDS011;46851;49.160;8.980;2023-08-06T12:17:14;5.90;;;2.60;;
60979;SDS011;46851;49.160;8.980;2023-08-06T12:19:40;5.90;;;2.20;;
60979;SDS011;46851;49.160;8.980;2023-08-06T12:22:06;7.43;;;2.75;;
60979;SDS011;46851;49.160;8.980;2023-08-06T12:24:33;4.13;;;2.55;;
60979;SDS011;46851;49.160;8.980;2023-08-06T12:26:59;4.75;;;2.70;;
60979;SDS011;46851;49.160;8.980;2023-08-06T12:29:27;5.85;;;2.72;;
60979;SDS011;46851;49.160;8.980;2023-08-06T12:31:53;4.53;;;2.67;;
60979;SDS011;46851;49.160;8.980;2023-08-06T12:34:19;6.78;;;2.88;;
60979;SDS011;46851;49.160;8.980;2023-08-06T12:36:45;4.05;;;2.50;;
60979;SDS011;46851;49.160;8.980;2023-08-06T12:39:11;6.88;;;3.15;;
60979;SDS011;46851;49.160;8.980;2023-08-06T12:41:38;5.55;;;2.88;;
60979;SDS011;46851;49.160;8.980;2023-08-06T12:44:04;6.47;;;3.05;;
60979;SDS011;46851;49.160;8.980;2023-08-06T12:46:30;6.82;;;2.80;;
60979;SDS011;46851;49.160;8.980;2023-08-06T12:48:56;8.20;;;2.95;;
60979;SDS011;46851;49.160;8.980;2023-08-06T12:51:23;7.95;;;2.50;;
60979;SDS011;46851;49.160;8.980;2023-08-06T12:53:49;6.70;;;2.88;;
60979;SDS011;46851;49.160;8.980;2023-08-06T12:56:14;3.78;;;2.60;;
60979;SDS011;46851;49.160;8.980;2023-08-06T12:58:40;6.45;;;3.00;;
60979;SDS011;46851;49.160;8.980;2023-08-06T13:01:07;8.80;;;3.10;;
60979;SDS011;46851;49.160;8.980;2023-08-06T13:03:33;8.02;;;2.85;;
60979;SDS011;46851;49.160;8.980;2023-08-06T13:05:59;5.40;;;2.90;;
60979;SDS011;46851;49.160;8.980;2023-08-06T13:08:25;7.03;;;2.65;;
60979;SDS011;46851;49.160;8.980;2023-08-06T13:10:51;8.75;;;3.05;;
60979;SDS011;46851;49.160;8.980;2023-08-06T13:13:17;12.55;;;2.63;;
60979;SDS011;46851;49.160;8.980;2023-08-06T13:15:43;8.38;;;3.15;;
60979;SDS011;46851;49.160;8.980;2023-08-06T13:18:09;6.68;;;2.90;;
60979;SDS011;46851;49.160;8.980;2023-08-06T13:20:37;6.32;;;2.92;;
60979;SDS011;46851;49.160;8.980;2023-08-06T13:23:05;4.38;;;2.47;;
60979;SDS011;46851;49.160;8.980;2023-08-06T13:25:31;6.57;;;2.17;;
60979;SDS011;46851;49.160;8.980;2023-08-06T13:28:01;4.03;;;2.22;;
60979;SDS011;46851;49.160;8.980;2023-08-06T13:30:27;8.32;;;2.33;;
60979;SDS011;46851;49.160;8.980;2023-08-06T13:32:53;9.55;;;2.20;;
60979;SDS011;46851;49.160;8.980;2023-08-06T13:35:21;4.22;;;2.28;;
60979;SDS011;46851;49.160;8.980;2023-08-06T13:37:47;4.18;;;2.35;;
60979;SDS011;46851;49.160;8.980;2023-08-06T13:40:13;2.92;;;2.22;;
60979;SDS011;46851;49.160;8.980;2023-08-06T13:42:39;7.22;;;2.90;;
60979;SDS011;46851;49.160;8.980;2023-08-06T13:45:06;5.57;;;2.53;;
60979;SDS011;46851;49.160;8.980;2023-08-06T13:47:32;7.95;;;2.70;;
60979;SDS011;46851;49.160;8.980;2023-08-06T13:49:58;4.57;;;2.20;;
60979;SDS011;46851;49.160;8.980;2023-08-06T13:52:25;4.68;;;2.35;;
60979;SDS011;46851;49.160;8.980;2023-08-06T13:54:51;3.88;;;2.20;;
60979;SDS011;46851;49.160;8.980;2023-08-06T13:57:18;5.75;;;1.88;;
60979;SDS011;46851;49.160;8.980;2023-08-06T13:59:43;4.40;;;1.60;;
60979;SDS011;46851;49.160;8.980;2023-08-06T14:02:10;3.25;;;1.50;;
60979;SDS011;46851;49.160;8.980;2023-08-06T14:04:36;1.45;;;0.90;;
60979;SDS011;46851;49.160;8.980;2023-08-06T14:07:02;2.90;;;1.27;;
60979;SDS011;46851;49.160;8.980;2023-08-06T14:09:28;1.40;;;1.10;;
60979;SDS011;46851;49.160;8.980;2023-08-06T14:11:55;3.70;;;1.30;;
60979;SDS011;46851;49.160;8.980;2023-08-06T14:14:21;4.10;;;1.58;;
60979;SDS011;46851;49.160;8.980;2023-08-06T14:16:51;4.30;;;1.15;;
60979;SDS011;46851;49.160;8.980;2023-08-06T14:19:17;2.08;;;1.20;;
60979;SDS011;46851;49.160;8.980;2023-08-06T14:21:43;5.05;;;1.15;;
60979;SDS011;46851;49.160;8.980;2023-08-06T14:24:09;3.38;;;1.52;;
60979;SDS011;46851;49.160;8.980;2023-08-06T14:26:35;2.15;;;1.55;;
60979;SDS011;46851;49.160;8.980;2023-08-06T14:29:02;1.20;;;1.10;;
60979;SDS011;46851;49.160;8.980;2023-08-06T14:31:28;2.08;;;1.00;;
60979;SDS011;46851;49.160;8.980;2023-08-06T14:33:54;2.88;;;1.30;;
60979;SDS011;46851;49.160;8.980;2023-08-06T14:36:20;1.20;;;1.10;;
60979;SDS011;46851;49.160;8.980;2023-08-06T14:38:46;2.35;;;1.30;;
60979;SDS011;46851;49.160;8.980;2023-08-06T14:41:12;1.83;;;1.00;;
60979;SDS011;46851;49.160;8.980;2023-08-06T14:43:38;1.70;;;1.27;;
60979;SDS011;46851;49.160;8.980;2023-08-06T14:46:05;4.47;;;1.00;;
60979;SDS011;46851;49.160;8.980;2023-08-06T14:48:31;2.50;;;1.20;;
60979;SDS011;46851;49.160;8.980;2023-08-06T14:50:57;1.35;;;1.10;;
60979;SDS011;46851;49.160;8.980;2023-08-06T14:53:23;1.23;;;1.00;;
60979;SDS011;46851;49.160;8.980;2023-08-06T14:55:49;1.98;;;1.08;;
60979;SDS011;46851;49.160;8.980;2023-08-06T14:58:15;2.55;;;1.08;;
60979;SDS011;46851;49.160;8.980;2023-08-06T15:00:41;2.17;;;1.25;;
60979;SDS011;46851;49.160;8.980;2023-08-06T15:03:07;2.92;;;1.40;;